Time;durP1;ratioP1;P1;durP2;ratioP2;P2;SDS_P1;SDS_P2;PMS_P1;PMS_P2;Temp;Humidity;BMP_temperature;BMP_pressure;BME280_temperature;BME280_humidity;BME280_pressure;Samples;Min_cycle;Max_cycle;Signal;HPM_P1;HPM_P2
2023/04/13 00:00:50;;;;;;;16.37;7.40;;;6.40;99.90;;;5.53;86.11;99346.25;5093424;28;20197;-73
2023/04/13 00:03:23;;;;;;;13.20;6.97;;;6.30;99.90;;;5.49;86.48;99347.56;5083590;28;20246;-73
2023/04/13 00:05:56;;;;;;;12.47;7.10;;;6.30;99.90;;;5.48;86.29;99346.72;5093812;28;20692;-73
2023/04/13 00:08:29;;;;;;;9.97;6.87;;;6.30;99.90;;;5.46;86.30;99348.72;5097399;28;20236;-73
2023/04/13 00:11:01;;;;;;;13.90;7.77;;;6.30;99.90;;;5.45;86.32;99340.91;5097184;28;20189;-73
2023/04/13 00:13:39;;;;;;;13.50;7.97;;;6.30;99.90;;;5.42;86.42;99336.78;5097323;28;20216;-73
2023/04/13 00:16:12;;;;;;;11.80;8.00;;;6.20;99.90;;;5.40;86.51;99338.75;5097126;28;20295;-73
2023/04/13 00:18:44;;;;;;;14.67;8.63;;;6.20;99.90;;;5.41;86.02;99340.41;5096973;28;20600;-73
2023/04/13 00:21:18;;;;;;;14.47;8.00;;;6.20;99.90;;;5.42;86.20;99331.47;5097317;28;20193;-73
2023/04/13 00:23:50;;;;;;;13.27;8.27;;;6.30;99.90;;;5.45;86.24;99330.31;5097246;28;20192;-73
2023/04/13 00:26:24;;;;;;;15.30;8.57;;;6.30;99.90;;;5.43;86.11;99327.81;5097078;28;20185;-73
2023/04/13 00:28:56;;;;;;;18.27;9.23;;;6.20;99.90;;;5.41;86.16;99329.78;5096737;28;20583;-73
2023/04/13 00:31:28;;;;;;;16.13;9.27;;;6.30;99.90;;;5.42;85.99;99331.47;5097062;28;20193;-73
2023/04/13 00:34:00;;;;;;;17.67;10.33;;;6.20;99.90;;;5.42;85.89;99334.13;5096988;28;20276;-73
2023/04/13 00:36:33;;;;;;;15.63;8.87;;;6.30;99.90;;;5.39;86.05;99337.09;5096979;28;20193;-73
2023/04/13 00:39:05;;;;;;;18.13;9.33;;;6.20;99.90;;;5.43;85.99;99338.44;5096949;28;20189;-73
2023/04/13 00:41:37;;;;;;;13.83;9.67;;;6.30;99.90;;;5.40;85.70;99333.47;5096861;28;20597;-73
2023/04/13 00:44:09;;;;;;;12.80;8.87;;;6.20;99.90;;;5.43;85.55;99327.81;5096872;28;20196;-73
2023/04/13 00:46:41;;;;;;;15.47;9.53;;;6.30;99.90;;;5.42;85.60;99336.78;5096642;28;20712;-73
2023/04/13 00:49:13;;;;;;;17.70;10.63;;;6.30;99.90;;;5.41;85.39;99340.41;5096653;28;20205;-73
2023/04/13 00:51:47;;;;;;;15.90;9.47;;;6.20;99.90;;;5.45;85.00;99336.44;5096769;28;20196;-73
2023/04/13 00:54:21;;;;;;;17.77;9.70;;;6.30;99.90;;;5.50;84.48;99336.81;5096687;28;20266;-73
2023/04/13 00:56:53;;;;;;;16.93;9.57;;;6.30;99.90;;;5.53;84.18;99339.13;5096536;28;20224;-73
2023/04/13 00:59:29;;;;;;;14.10;9.57;;;6.30;99.90;;;5.54;83.80;99335.50;5095280;28;20209;-73
2023/04/13 01:02:04;;;;;;;17.40;10.10;;;6.30;99.90;;;5.53;83.38;99338.28;5095236;28;20196;-73
2023/04/13 01:04:36;;;;;;;12.47;9.57;;;6.30;99.90;;;5.54;83.71;99334.66;5094896;28;20189;-73
2023/04/13 01:07:19;;;;;;;15.27;10.23;;;6.30;99.90;;;5.51;83.75;99341.09;5095212;28;20307;-73
2023/04/13 01:10:01;;;;;;;13.73;9.13;;;6.20;99.90;;;5.53;82.99;99344.44;5094740;28;20628;-73
2023/04/13 01:12:45;;;;;;;13.07;8.53;;;6.30;99.90;;;5.50;82.79;99342.13;5095070;28;20196;-73
2023/04/13 01:15:19;;;;;;;16.43;9.87;;;6.20;99.90;;;5.51;82.63;99346.41;5095072;28;20212;-73
2023/04/13 01:17:58;;;;;;;12.60;8.77;;;6.30;99.90;;;5.48;82.81;99352.03;5094524;28;20232;-73
2023/04/13 01:20:32;;;;;;;12.10;8.80;;;6.20;99.90;;;5.47;82.67;99337.13;5094642;28;20224;-73
2023/04/13 01:23:12;;;;;;;17.13;9.50;;;6.20;99.90;;;5.41;82.93;99339.59;5094950;28;20192;-73
2023/04/13 01:25:55;;;;;;;13.63;8.70;;;6.10;99.90;;;5.39;82.56;99342.41;5094889;28;20216;-73
2023/04/13 01:28:33;;;;;;;12.00;8.57;;;6.10;99.90;;;5.38;81.88;99343.38;5095208;28;20246;-73
2023/04/13 01:31:10;;;;;;;14.87;8.50;;;6.10;99.90;;;5.37;82.09;99341.75;5094811;28;20184;-73
2023/04/13 01:33:45;;;;;;;11.30;8.93;;;6.10;99.90;;;5.30;82.23;99355.81;5094817;28;20193;-73
2023/04/13 01:36:18;;;;;;;12.63;9.13;;;6.00;99.90;;;5.31;82.18;99334.41;5094817;28;20629;-73
2023/04/13 01:38:51;;;;;;;14.03;8.73;;;6.10;99.90;;;5.31;82.18;99331.75;5094659;28;20197;-73
2023/04/13 01:41:22;;;;;;;12.93;9.23;;;6.10;99.90;;;5.30;82.26;99338.06;5094635;28;20200;-73
2023/04/13 01:43:55;;;;;;;15.53;9.50;;;6.00;99.90;;;5.30;82.65;99331.94;5094609;28;20225;-73
2023/04/13 01:46:33;;;;;;;12.77;9.17;;;6.00;99.90;;;5.31;82.59;99323.78;5094632;28;20337;-73
2023/04/13 01:49:07;;;;;;;14.07;9.43;;;6.10;99.90;;;5.30;82.73;99327.47;5094487;28;20208;-73
2023/04/13 01:51:41;;;;;;;12.20;9.20;;;6.10;99.90;;;5.27;83.18;99327.78;5094518;28;20217;-73
2023/04/13 01:54:19;;;;;;;14.63;9.07;;;6.00;99.90;;;5.28;82.98;99318.81;5094506;28;20275;-73
2023/04/13 01:56:56;;;;;;;12.80;9.40;;;6.00;99.90;;;5.26;83.47;99319.97;5094270;28;20224;-73
2023/04/13 01:59:30;;;;;;;11.57;8.47;;;6.00;99.90;;;5.28;83.58;99324.13;5056905;28;1078906;-74
2023/04/13 02:02:01;;;;;;;12.17;8.90;;;6.10;99.90;;;5.28;83.50;99324.13;5095024;28;20221;-73
2023/04/13 02:04:33;;;;;;;12.17;9.07;;;6.10;99.90;;;5.26;83.66;99319.97;5095064;28;20633;-73
2023/04/13 02:07:05;;;;;;;13.23;9.27;;;6.00;99.90;;;5.23;84.03;99320.28;5095195;28;20225;-73
2023/04/13 02:09:37;;;;;;;10.30;8.50;;;6.00;99.90;;;5.25;83.91;99320.94;5095084;28;20216;-73
2023/04/13 02:12:11;;;;;;;12.97;9.47;;;6.00;99.90;;;5.24;83.71;99320.13;5095121;28;20193;-73
2023/04/13 02:14:44;;;;;;;12.37;8.43;;;6.00;99.90;;;5.26;83.82;99320.81;5094754;28;20196;-73
2023/04/13 02:17:17;;;;;;;10.03;8.13;;;6.00;99.90;;;5.24;84.17;99316.66;5094703;28;20704;-73
2023/04/13 02:19:49;;;;;;;11.47;8.03;;;6.00;99.90;;;5.21;84.64;99319.59;5094635;28;20238;-73
2023/04/13 02:22:22;;;;;;;11.60;8.00;;;6.00;99.90;;;5.18;84.75;99323.41;5094967;28;20196;-73
2023/04/13 02:24:55;;;;;;;11.13;8.47;;;6.00;99.90;;;5.17;84.60;99321.78;5095406;28;20196;-73
2023/04/13 02:27:27;;;;;;;13.33;8.90;;;6.00;99.90;;;5.11;85.25;99330.34;5094829;28;20315;-73
2023/04/13 02:30:01;;;;;;;10.97;8.67;;;5.90;99.90;;;5.15;85.13;99318.44;5093934;28;20209;-73
2023/04/13 02:32:38;;;;;;;12.03;8.77;;;6.00;99.90;;;5.15;85.15;99315.78;5094817;28;20189;-73
2023/04/13 02:35:10;;;;;;;10.30;8.27;;;5.90;99.90;;;5.13;84.67;99315.13;5094422;28;20633;-73
2023/04/13 02:37:42;;;;;;;11.30;8.80;;;5.90;99.90;;;5.13;84.32;99308.97;5094639;28;20589;-73
2023/04/13 02:40:15;;;;;;;12.73;9.20;;;5.90;99.90;;;5.14;84.52;99306.16;5094550;28;20202;-73
2023/04/13 02:42:47;;;;;;;13.73;8.73;;;5.90;99.90;;;5.09;85.16;99297.88;5094231;28;20642;-73
2023/04/13 02:45:21;;;;;;;12.00;8.50;;;5.90;99.90;;;5.07;84.92;99302.47;5094503;28;20189;-73
2023/04/13 02:47:52;;;;;;;12.57;8.63;;;5.80;99.90;;;5.07;85.13;99292.72;5094478;28;20223;-73
2023/04/13 02:50:27;;;;;;;14.93;8.67;;;5.80;99.90;;;5.04;85.38;99290.38;5094297;28;20217;-73
2023/04/13 02:52:59;;;;;;;12.83;8.77;;;5.80;99.90;;;5.02;85.31;99299.50;5094348;28;20184;-73
2023/04/13 02:55:31;;;;;;;10.30;8.60;;;5.80;99.90;;;5.03;85.12;99293.22;5094008;28;20550;-73
2023/04/13 02:58:05;;;;;;;11.00;8.80;;;5.80;99.90;;;5.00;85.45;99304.13;5094093;28;20232;-73
2023/04/13 03:00:39;;;;;;;12.00;8.40;;;5.80;99.90;;;4.99;85.26;99297.16;5094256;28;20287;-73
2023/04/13 03:03:11;;;;;;;10.40;8.33;;;5.80;99.90;;;4.97;85.45;99299.97;5094223;28;20189;-73
2023/04/13 03:05:42;;;;;;;11.07;8.53;;;5.70;99.90;;;4.97;85.54;99296.47;5093757;28;20284;-73
2023/04/13 03:08:16;;;;;;;12.27;9.00;;;5.80;99.90;;;4.95;85.43;99301.13;5093687;28;20731;-73
2023/04/13 03:10:48;;;;;;;11.30;8.73;;;5.70;99.90;;;4.93;85.44;99303.13;5093645;28;20575;-73
2023/04/13 03:13:20;;;;;;;11.00;8.43;;;5.70;99.90;;;4.93;85.37;99301.25;5093696;28;20583;-73
2023/04/13 03:15:53;;;;;;;12.70;8.47;;;5.70;99.90;;;4.89;85.52;99297.28;5093955;28;20192;-73
2023/04/13 03:18:26;;;;;;;11.07;7.80;;;5.70;99.90;;;4.89;85.21;99309.72;5093849;28;20236;-73
2023/04/13 03:20:58;;;;;;;10.63;7.43;;;5.70;99.90;;;4.89;85.44;99309.72;5093923;28;20185;-73
2023/04/13 03:23:30;;;;;;;9.47;7.03;;;5.70;99.90;;;4.85;85.48;99316.31;5093550;28;20650;-73
2023/04/13 03:26:01;;;;;;;12.00;7.70;;;5.60;99.90;;;4.84;85.53;99320.78;5093788;28;20193;-73
2023/04/13 03:28:33;;;;;;;11.73;7.53;;;5.70;99.90;;;4.85;85.24;99324.28;5093434;28;20229;-73
2023/04/13 03:31:06;;;;;;;8.90;7.60;;;5.60;99.90;;;4.83;85.13;99307.72;5093693;28;20213;-73
2023/04/13 03:33:38;;;;;;;10.30;7.27;;;5.60;99.90;;;4.79;84.94;99309.00;5093727;28;20208;-73
2023/04/13 03:36:11;;;;;;;8.60;6.20;;;5.60;99.90;;;4.79;85.24;99311.66;5093669;28;20197;-73
2023/04/13 03:38:43;;;;;;;8.77;6.80;;;5.60;99.90;;;4.78;85.14;99318.78;5093270;28;20721;-73
2023/04/13 03:41:17;;;;;;;9.90;6.77;;;5.60;99.90;;;4.77;85.05;99313.63;5093569;28;20267;-73
2023/04/13 03:43:49;;;;;;;8.73;6.03;;;5.50;99.90;;;4.76;84.63;99317.28;5093593;28;20193;-73
2023/04/13 03:46:22;;;;;;;7.40;5.53;;;5.60;99.90;;;4.75;84.84;99326.22;5093507;28;20200;-73
2023/04/13 03:48:54;;;;;;;6.90;5.10;;;5.50;99.90;;;4.76;84.71;99320.75;5093209;28;20288;-73
2023/04/13 03:51:26;;;;;;;7.30;5.00;;;5.60;99.90;;;4.75;84.70;99312.97;5093498;28;20196;-73
2023/04/13 03:53:58;;;;;;;6.87;5.07;;;5.50;99.90;;;4.76;84.83;99322.59;5093231;28;20278;-73
2023/04/13 03:56:31;;;;;;;5.83;4.60;;;5.60;99.90;;;4.76;84.54;99328.69;5093401;28;20193;-73
2023/04/13 03:59:03;;;;;;;5.37;4.53;;;5.60;99.90;;;4.78;84.64;99331.19;5093089;28;20217;-73
2023/04/13 04:01:37;;;;;;;5.90;4.30;;;5.60;99.90;;;4.76;84.30;99328.69;5093174;28;20184;-73
2023/04/13 04:04:09;;;;;;;4.47;4.00;;;5.60;99.90;;;4.79;84.25;99332.88;5093089;28;20192;-73
2023/04/13 04:06:44;;;;;;;5.10;3.63;;;5.60;99.90;;;4.79;84.13;99332.88;5093292;28;20232;-73
2023/04/13 04:09:16;;;;;;;4.57;4.10;;;5.60;99.90;;;4.78;84.02;99326.75;5093208;28;20195;-73
2023/04/13 04:11:48;;;;;;;5.03;3.77;;;5.60;99.90;;;4.76;84.18;99333.19;5093025;28;20513;-73
2023/04/13 04:14:19;;;;;;;5.77;3.30;;;5.50;99.90;;;4.75;84.14;99326.22;5093383;28;20189;-73
2023/04/13 04:16:52;;;;;;;4.23;3.20;;;5.60;99.90;;;4.74;83.76;99333.34;5093501;28;20220;-73
2023/04/13 04:19:24;;;;;;;3.53;3.03;;;5.60;99.90;;;4.74;84.23;99333.34;5093994;28;20661;-73
2023/04/13 04:21:56;;;;;;;5.90;2.97;;;5.50;99.90;;;4.74;83.85;99336.00;5092959;28;20665;-73
2023/04/13 04:24:29;;;;;;;3.90;2.80;;;5.60;99.90;;;4.75;83.94;99336.81;5093289;28;20189;-73
2023/04/13 04:27:02;;;;;;;3.57;2.60;;;5.60;99.90;;;4.76;83.75;99333.19;5092890;28;20231;-73
2023/04/13 04:29:33;;;;;;;3.00;2.70;;;5.60;99.90;;;4.75;83.39;99331.53;5092818;28;20634;-73
2023/04/13 04:32:09;;;;;;;3.83;2.50;;;5.60;99.90;;;4.74;83.82;99341.28;5093205;28;20189;-73
2023/04/13 04:34:42;;;;;;;3.20;2.90;;;5.60;99.90;;;4.74;83.90;99343.09;5093155;28;20204;-73
2023/04/13 04:37:13;;;;;;;4.63;2.80;;;5.60;99.90;;;4.73;83.50;99352.88;5093045;28;20224;-73
2023/04/13 04:39:52;;;;;;;3.83;2.70;;;5.60;99.90;;;4.77;83.82;99346.28;5093100;28;20204;-73
2023/04/13 04:42:24;;;;;;;4.97;2.40;;;5.60;99.90;;;4.81;83.97;99357.41;5092783;28;20641;-73
2023/04/13 04:44:56;;;;;;;4.00;2.30;;;5.60;99.90;;;4.81;84.19;99354.75;5093023;28;20197;-73
2023/04/13 04:47:29;;;;;;;2.10;1.90;;;5.60;99.90;;;4.82;83.82;99359.91;5092651;28;20712;-73
2023/04/13 04:50:02;;;;;;;3.80;2.43;;;5.70;99.90;;;4.82;83.99;99359.06;5092927;28;20239;-73
2023/04/13 04:52:33;;;;;;;1.93;1.83;;;5.70;99.90;;;4.82;84.08;99356.41;5094540;28;20196;-73
2023/04/13 04:55:06;;;;;;;5.13;2.10;;;5.60;99.90;;;4.82;84.11;99364.38;5096685;28;20193;-73
2023/04/13 04:57:38;;;;;;;2.33;2.00;;;5.60;99.90;;;4.84;84.31;99367.69;5096630;28;20279;-73
2023/04/13 05:00:14;;;;;;;2.40;2.10;;;5.70;99.90;;;4.86;84.27;99371.03;5096323;28;20185;-73
2023/04/13 05:02:49;;;;;;;2.67;2.10;;;5.70;99.90;;;4.89;84.15;99371.56;5096251;28;20553;-73
2023/04/13 05:05:21;;;;;;;2.97;2.07;;;5.70;99.90;;;4.91;84.41;99369.56;5096538;28;20238;-73
2023/04/13 05:07:53;;;;;;;4.93;2.47;;;5.70;99.90;;;4.93;84.49;99374.72;5096312;28;20229;-73
2023/04/13 05:10:27;;;;;;;4.00;3.03;;;5.80;99.90;;;4.97;84.18;99371.56;5096334;28;20208;-73
2023/04/13 05:12:59;;;;;;;3.47;2.37;;;5.80;99.90;;;5.00;84.26;99373.09;5096381;28;20279;-73
2023/04/13 05:15:31;;;;;;;3.77;1.97;;;5.80;99.90;;;5.03;84.55;99370.13;5096018;28;20242;-73
2023/04/13 05:18:04;;;;;;;2.87;1.80;;;5.90;99.90;;;5.05;84.16;99370.78;5096166;28;20233;-73
2023/04/13 05:20:36;;;;;;;2.80;2.03;;;5.90;99.90;;;5.07;84.07;99376.75;5096193;28;20235;-73
2023/04/13 05:23:08;;;;;;;3.73;2.20;;;5.90;99.90;;;5.09;84.24;99372.13;5096195;28;20234;-73
2023/04/13 05:25:40;;;;;;;3.03;2.13;;;5.90;99.90;;;5.12;84.07;99369.16;5095830;28;20626;-73
2023/04/13 05:28:20;;;;;;;3.30;1.60;;;6.00;99.90;;;5.16;84.00;99367.88;5096021;28;20238;-73
2023/04/13 05:30:52;;;;;;;2.80;1.70;;;6.00;99.90;;;5.20;83.86;99374.53;5095764;28;20677;-73
2023/04/13 05:33:25;;;;;;;4.13;1.90;;;6.00;99.90;;;5.21;84.05;99377.97;5095675;28;20634;-73
2023/04/13 05:35:57;;;;;;;5.33;2.00;;;6.10;99.90;;;5.23;83.78;99376.00;5095957;28;20189;-73
2023/04/13 05:38:29;;;;;;;2.73;1.77;;;6.10;99.90;;;5.25;83.85;99381.97;5095823;28;20225;-73
2023/04/13 05:41:02;;;;;;;2.27;1.50;;;6.10;99.90;;;5.30;83.78;99385.84;5095887;28;20188;-73
2023/04/13 05:43:36;;;;;;;3.37;1.90;;;6.20;99.90;;;5.31;83.48;99376.88;5095458;28;20200;-73
2023/04/13 05:46:11;;;;;;;2.53;1.60;;;6.20;99.90;;;5.31;83.60;99376.88;5095817;28;20193;-73
2023/04/13 05:48:44;;;;;;;4.53;1.73;;;6.20;99.90;;;5.31;83.56;99371.56;5095578;28;20228;-73
2023/04/13 05:51:18;;;;;;;4.10;1.90;;;6.20;99.90;;;5.31;83.43;99371.56;5095596;28;20255;-72
2023/04/13 05:53:51;;;;;;;2.70;1.50;;;6.20;99.90;;;5.34;84.21;99371.22;5095633;28;20281;-73
2023/04/13 05:56:24;;;;;;;2.87;1.77;;;6.20;99.90;;;5.36;83.90;99377.22;5095471;28;20189;-73
2023/04/13 05:58:56;;;;;;;3.17;1.63;;;6.20;99.90;;;5.38;83.90;99374.41;5095211;28;20217;-73
2023/04/13 06:01:28;;;;;;;2.70;1.70;;;6.20;99.90;;;5.39;83.27;99376.91;5095491;28;20185;-73
2023/04/13 06:04:03;;;;;;;3.77;1.80;;;6.30;99.90;;;5.42;83.23;99384.53;5094200;28;20212;-73
2023/04/13 06:06:35;;;;;;;2.43;1.30;;;6.30;99.90;;;5.43;83.34;99391.53;5094956;28;20601;-73
2023/04/13 06:09:11;;;;;;;3.17;1.80;;;6.30;99.90;;;5.45;83.77;99394.00;5095217;28;20193;-73
2023/04/13 06:11:43;;;;;;;3.73;1.70;;;6.30;99.90;;;5.45;83.91;99389.53;5095189;28;20262;-73
2023/04/13 06:14:16;;;;;;;3.57;1.90;;;6.30;99.90;;;5.50;83.64;99397.03;5095059;28;20193;-73
2023/04/13 06:16:48;;;;;;;3.10;1.70;;;6.40;99.90;;;5.55;83.52;99394.69;5094648;28;20221;-73
2023/04/13 06:19:22;;;;;;;2.87;1.80;;;6.40;99.90;;;5.57;83.90;99401.53;5094718;28;20634;-75
2023/04/13 06:21:53;;;;;;;2.93;1.60;;;6.40;99.90;;;5.61;83.58;99400.22;5095928;28;20186;-75
2023/04/13 06:24:26;;;;;;;2.80;1.80;;;6.50;99.90;;;5.69;83.74;99411.84;5094574;28;20195;-75
2023/04/13 06:26:58;;;;;;;3.97;1.90;;;6.50;99.90;;;5.71;83.91;99409.88;5094557;28;20227;-74
2023/04/13 06:29:29;;;;;;;3.20;1.80;;;6.50;99.90;;;5.75;83.75;99405.91;5094931;28;20189;-75
2023/04/13 06:32:01;;;;;;;3.43;2.13;;;6.60;99.90;;;5.81;83.46;99410.56;5094504;28;20213;-75
2023/04/13 06:34:34;;;;;;;4.70;1.90;;;6.70;99.90;;;5.85;83.44;99403.94;5094795;28;20189;-75
2023/04/13 06:37:06;;;;;;;5.20;2.00;;;6.70;99.90;;;5.88;83.82;99396.50;5094732;28;20229;-73
2023/04/13 06:39:38;;;;;;;5.40;1.93;;;6.80;99.90;;;5.93;83.33;99409.28;5094736;28;20554;-73
2023/04/13 06:42:10;;;;;;;3.50;1.80;;;6.80;99.90;;;5.98;83.59;99407.81;5094633;28;20189;-74
2023/04/13 06:44:42;;;;;;;3.87;1.70;;;6.90;99.90;;;6.06;83.11;99404.34;5094687;28;20193;-74
2023/04/13 06:47:16;;;;;;;3.63;1.90;;;6.90;99.90;;;6.10;83.46;99403.00;5094275;28;20270;-73
2023/04/13 06:49:50;;;;;;;1.83;1.40;;;7.00;99.90;;;6.14;82.92;99414.97;5094233;28;20570;-75
2023/04/13 06:52:22;;;;;;;3.50;1.60;;;7.00;99.90;;;6.18;82.91;99410.97;5094392;28;20212;-74
2023/04/13 06:54:54;;;;;;;4.43;1.73;;;7.00;99.90;;;6.24;83.34;99418.28;5094439;28;20242;-74
2023/04/13 06:57:25;;;;;;;2.57;1.80;;;7.10;99.90;;;6.27;82.04;99415.31;5094285;28;20228;-73
2023/04/13 06:59:57;;;;;;;1.63;1.50;;;7.10;99.90;;;6.32;81.88;99420.13;5094049;28;20220;-73
2023/04/13 07:02:30;;;;;;;2.80;1.77;;;7.20;99.90;;;6.34;81.72;99418.97;5094446;28;20198;-68
2023/04/13 07:05:03;;;;;;;2.77;1.63;;;7.20;99.90;;;6.37;81.14;99423.94;5094321;28;20189;-77
2023/04/13 07:07:35;;;;;;;3.83;1.43;;;7.20;99.90;;;6.41;81.48;99430.59;5094298;28;20229;-77
2023/04/13 07:10:09;;;;;;;4.67;1.50;;;7.30;99.90;;;6.45;81.38;99436.41;5094352;28;20192;-77
2023/04/13 07:12:41;;;;;;;3.40;1.60;;;7.30;99.90;;;6.49;81.29;99438.59;5093903;28;20209;-77
2023/04/13 07:15:14;;;;;;;5.07;1.87;;;7.30;99.90;;;6.53;81.48;99434.59;5093557;28;20188;-77
2023/04/13 07:17:46;;;;;;;4.80;1.87;;;7.40;99.90;;;6.63;80.32;99443.25;5094104;28;20232;-77
2023/04/13 07:20:19;;;;;;;2.30;1.70;;;7.50;99.90;;;6.69;80.34;99443.56;5093837;28;20647;-77
2023/04/13 07:22:52;;;;;;;1.57;1.20;;;7.50;99.90;;;6.86;77.81;99445.22;5094067;28;20188;-77
2023/04/13 07:25:23;;;;;;;3.23;1.50;;;7.70;99.90;;;6.88;79.98;99452.03;5094089;28;20196;-77
2023/04/13 07:27:55;;;;;;;3.13;1.40;;;7.70;99.90;;;7.02;78.65;99455.84;5093883;28;20232;-77
2023/04/13 07:30:27;;;;;;;3.87;1.70;;;7.80;99.90;;;7.21;75.09;99459.97;5093725;28;20664;-77
2023/04/13 07:32:59;;;;;;;1.93;1.20;;;8.00;99.90;;;7.32;75.36;99460.44;5093859;28;20209;-77
2023/04/13 07:35:33;;;;;;;2.20;1.40;;;8.10;99.90;;;7.37;73.97;99462.56;5093897;28;20189;-77
2023/04/13 07:38:05;;;;;;;6.73;1.53;;;8.10;99.90;;;7.36;74.06;99464.44;5093580;28;20243;-77
2023/04/13 07:40:36;;;;;;;4.80;1.50;;;8.10;99.90;;;7.47;72.73;99466.69;5093870;28;20196;-77
2023/04/13 07:43:08;;;;;;;2.80;1.30;;;8.20;99.90;;;7.44;73.50;99464.38;5093848;28;20193;-77
2023/04/13 07:45:42;;;;;;;3.00;1.57;;;8.20;99.90;;;7.47;73.89;99471.19;5093793;28;20242;-77
2023/04/13 07:48:14;;;;;;;2.10;1.30;;;8.20;99.90;;;7.50;73.99;99470.88;5093422;28;20705;-77
2023/04/13 07:50:48;;;;;;;3.90;1.70;;;8.30;99.90;;;7.49;74.23;99467.38;5093693;28;20200;-77
2023/04/13 07:53:20;;;;;;;5.37;1.67;;;8.30;99.90;;;7.62;72.94;99470.31;5093638;28;20212;-77
2023/04/13 07:55:51;;;;;;;3.10;1.30;;;8.40;99.90;;;7.74;72.11;99472.63;5093659;28;20185;-77
2023/04/13 07:58:23;;;;;;;3.07;1.30;;;8.50;99.60;;;7.77;73.53;99496.25;5093386;28;20228;-77
2023/04/13 08:00:55;;;;;;;3.47;1.33;;;8.50;99.80;;;7.76;72.59;99486.59;5093644;28;20189;-77
2023/04/13 08:03:30;;;;;;;4.73;1.57;;;8.60;99.40;;;7.79;72.10;99486.25;5093601;28;20185;-77
2023/04/13 08:06:06;;;;;;;2.33;1.30;;;8.50;99.50;;;7.86;71.19;99485.38;5093218;28;20193;-77
2023/04/13 08:08:37;;;;;;;3.17;1.47;;;8.60;99.10;;;7.99;70.82;99501.63;5093498;28;20224;-77
2023/04/13 08:11:10;;;;;;;3.83;1.20;;;8.70;98.60;;;8.06;70.49;99499.09;5093558;28;20200;-77
2023/04/13 08:13:42;;;;;;;3.30;1.20;;;8.80;98.60;;;8.05;70.15;99502.75;5093544;28;20193;-77
2023/04/13 08:16:15;;;;;;;2.40;1.20;;;8.80;98.40;;;8.06;70.17;99505.28;5093490;28;20200;-77
2023/04/13 08:18:46;;;;;;;4.30;1.63;;;8.80;98.10;;;8.04;70.59;99509.97;5093413;28;20228;-77
2023/04/13 08:21:20;;;;;;;2.37;1.40;;;8.80;98.40;;;8.07;70.95;99522.09;5093415;28;20189;-77
2023/04/13 08:23:53;;;;;;;2.57;1.13;;;8.80;98.60;;;8.13;69.94;99526.72;5093419;28;20193;-77
2023/04/13 08:26:25;;;;;;;4.20;1.53;;;8.80;98.30;;;8.11;69.89;99534.91;5093279;28;20185;-77
2023/04/13 08:28:57;;;;;;;3.63;1.50;;;8.90;98.40;;;8.06;70.92;99536.41;5097290;28;20196;-77
2023/04/13 08:31:31;;;;;;;3.80;1.50;;;8.80;98.70;;;8.07;71.98;99535.44;5097300;28;20193;-78
2023/04/13 08:34:03;;;;;;;4.00;1.47;;;8.80;98.90;;;8.13;71.00;99542.72;5097303;28;20186;-78
2023/04/13 08:36:39;;;;;;;3.53;1.83;;;8.90;98.70;;;8.14;70.40;99555.06;5096871;28;20656;-78
2023/04/13 08:39:12;;;;;;;5.50;1.57;;;8.90;98.50;;;8.18;68.96;99550.22;5097227;28;20192;-78
2023/04/13 08:41:48;;;;;;;2.00;1.27;;;8.90;97.80;;;8.23;70.06;99554.00;5097138;28;20218;-78
2023/04/13 08:44:20;;;;;;;4.03;1.30;;;8.90;98.30;;;8.27;70.19;99555.31;5097120;28;20200;-78
2023/04/13 08:46:52;;;;;;;2.03;1.30;;;9.00;98.30;;;8.26;70.36;99558.16;5096977;28;20225;-78
2023/04/13 08:49:24;;;;;;;2.77;1.30;;;9.00;98.50;;;8.26;69.63;99550.97;5097012;28;20184;-78
2023/04/13 08:51:59;;;;;;;3.07;1.40;;;9.00;98.00;;;8.34;70.23;99555.47;5096895;28;20352;-78
2023/04/13 08:54:33;;;;;;;4.60;1.50;;;9.10;98.30;;;8.42;70.30;99558.13;5096892;28;20196;-78
2023/04/13 08:57:06;;;;;;;5.13;1.37;;;9.10;98.30;;;8.54;67.62;99557.53;5096781;28;20223;-77
2023/04/13 08:59:41;;;;;;;5.60;1.50;;;9.30;97.40;;;8.61;67.78;99568.34;5096866;28;20637;-78
2023/04/13 09:02:14;;;;;;;1.90;1.27;;;9.30;97.30;;;8.69;68.48;99564.78;5096910;28;20664;-77
2023/04/13 09:04:49;;;;;;;1.93;1.20;;;9.40;97.30;;;8.62;67.66;99578.00;5096408;28;20227;-77
2023/04/13 09:07:30;;;;;;;1.60;1.30;;;9.40;97.00;;;8.51;69.58;99589.91;5096590;28;20289;-77
2023/04/13 09:10:08;;;;;;;2.63;1.73;;;9.30;97.90;;;8.42;69.79;99590.97;5096581;28;20246;-77
2023/04/13 09:12:41;;;;;;;2.97;1.40;;;9.20;98.20;;;8.35;71.98;99587.31;5096631;28;20252;-77
2023/04/13 09:15:17;;;;;;;5.60;1.43;;;9.10;99.00;;;8.28;72.37;99588.16;5096641;28;20197;-77
2023/04/13 09:17:52;;;;;;;4.00;1.20;;;9.00;99.80;;;8.20;74.40;99607.69;5096532;28;20224;-77
2023/04/13 09:20:25;;;;;;;4.60;1.80;;;9.00;99.90;;;8.09;75.73;99594.72;5096456;28;20216;-77
2023/04/13 09:22:58;;;;;;;2.77;1.60;;;8.80;99.90;;;8.10;77.30;99591.88;5096357;28;20195;-77
2023/04/13 09:25:31;;;;;;;4.30;1.77;;;8.80;99.90;;;8.04;75.84;99597.09;5096285;28;20242;-77
2023/04/13 09:28:05;;;;;;;4.53;1.60;;;8.80;99.90;;;7.97;77.26;99596.09;5096282;28;20229;-77
2023/04/13 09:30:36;;;;;;;3.37;1.80;;;8.70;99.90;;;7.98;78.92;99592.44;5096244;28;20195;-77
2023/04/13 09:33:10;;;;;;;3.43;2.00;;;8.70;99.90;;;8.17;78.28;99584.03;5096169;28;20229;-77
2023/04/13 09:35:43;;;;;;;2.67;1.40;;;8.90;99.90;;;8.40;76.13;99598.28;5096102;28;20219;-77
2023/04/13 09:38:17;;;;;;;2.50;1.37;;;9.10;99.90;;;8.62;77.47;99602.84;5095834;28;20239;-77
2023/04/13 09:40:53;;;;;;;2.33;1.30;;;9.30;99.90;;;8.94;75.21;99606.28;5096077;28;20193;-77
2023/04/13 09:43:34;;;;;;;2.50;1.20;;;9.60;99.90;;;9.03;72.52;99608.75;5095955;28;20185;-77
2023/04/13 09:46:11;;;;;;;2.13;1.10;;;9.70;99.50;;;9.15;74.31;99606.47;5096092;28;20196;-78
2023/04/13 09:48:44;;;;;;;2.00;1.20;;;9.90;99.90;;;9.30;71.87;99604.72;5095529;28;20724;-78
2023/04/13 09:51:16;;;;;;;2.37;1.10;;;10.00;99.10;;;9.29;70.71;99608.38;5095826;28;20243;-78
2023/04/13 09:53:50;;;;;;;2.03;1.30;;;10.00;98.50;;;9.48;69.84;99607.06;5095726;28;20220;-78
2023/04/13 09:56:23;;;;;;;1.60;1.30;;;10.10;98.20;;;9.58;68.26;99603.13;5095727;28;20189;-77
2023/04/13 09:58:55;;;;;;;2.73;1.40;;;10.20;97.60;;;9.57;66.98;99624.66;5095377;28;20216;-77
2023/04/13 10:01:29;;;;;;;1.63;1.20;;;10.20;96.70;;;9.57;67.52;99620.16;5095633;28;20203;-78
2023/04/13 10:04:04;;;;;;;2.43;1.33;;;10.20;97.10;;;9.68;66.84;99630.41;5095688;28;20638;-77
2023/04/13 10:06:37;;;;;;;1.90;1.50;;;10.30;97.10;;;9.86;66.52;99624.75;5095475;28;20189;-77
2023/04/13 10:09:11;;;;;;;1.83;1.60;;;10.50;96.50;;;9.92;66.46;99618.66;5096761;28;20189;-77
2023/04/13 10:11:53;;;;;;;2.80;1.43;;;10.60;96.50;;;10.07;66.46;99627.50;5095483;28;20276;-77
2023/04/13 10:14:32;;;;;;;1.90;1.70;;;10.70;96.40;;;10.14;64.21;99627.63;5095035;28;20580;-77
2023/04/13 10:17:22;;;;;;;2.23;1.60;;;10.80;95.30;;;10.35;61.86;99633.06;5094942;28;20711;-77
2023/04/13 10:19:59;;;;;;;3.03;1.73;;;11.00;94.80;;;10.39;62.13;99630.84;5095318;28;20193;-77
2023/04/13 10:22:32;;;;;;;3.10;1.80;;;11.10;94.30;;;10.56;61.79;99622.44;5094833;28;20271;-77
2023/04/13 10:25:07;;;;;;;2.43;1.60;;;11.20;94.00;;;10.53;61.41;99627.31;5094890;28;20561;-77
2023/04/13 10:27:43;;;;;;;4.07;1.77;;;11.20;93.90;;;10.62;62.56;99647.59;5095915;28;20228;-78
2023/04/13 10:30:22;;;;;;;2.20;1.50;;;11.30;94.40;;;10.68;62.10;99639.66;5095085;28;20607;-78
2023/04/13 10:33:06;;;;;;;2.03;1.60;;;11.30;94.00;;;10.75;60.33;99636.25;5094966;28;20595;-78
2023/04/13 10:35:39;;;;;;;3.63;1.83;;;11.40;93.70;;;10.92;63.57;99648.41;5094625;28;20563;-78
2023/04/13 10:38:14;;;;;;;2.00;1.40;;;11.60;94.90;;;10.85;60.21;99648.31;5094794;28;20227;-78
2023/04/13 10:40:49;;;;;;;4.23;1.60;;;11.50;93.40;;;11.02;61.91;99648.91;5094539;28;20192;-78
2023/04/13 10:43:34;;;;;;;1.80;1.33;;;11.70;94.30;;;11.05;61.45;99653.88;5094803;28;20189;-77
2023/04/13 10:46:12;;;;;;;1.90;1.40;;;11.70;94.00;;;11.18;60.51;99648.66;5094798;28;20192;-77
2023/04/13 10:48:53;;;;;;;1.83;1.30;;;11.80;93.50;;;11.14;59.19;99650.06;5094318;28;20304;-77
2023/04/13 10:51:26;;;;;;;2.63;1.40;;;11.80;92.80;;;11.31;58.74;99659.50;5094072;28;20189;-77
2023/04/13 10:54:08;;;;;;;2.63;1.60;;;11.90;92.30;;;11.32;56.31;99650.47;5094587;28;20217;-77
2023/04/13 10:56:41;;;;;;;2.80;1.80;;;12.00;91.10;;;11.46;58.27;99654.94;5094466;28;20189;-77